Time;durP1;ratioP1;P1;durP2;ratioP2;P2;SDS_P1;SDS_P2;PMS_P1;PMS_P2;Temp;Humidity;BMP_temperature;BMP_pressure;BME280_temperature;BME280_humidity;BME280_pressure;Samples;Min_cycle;Max_cycle;Signal;HPM_P1;HPM_P2
2022/09/10 00:00:08;;;;;;;;;;;17.00;94.50;;;;;;4995166;28;20023;-83
2022/09/10 00:02:38;;;;;;;;;;;16.90;94.50;;;;;;4998465;28;19972;-83
2022/09/10 00:05:06;;;;;;;;;;;16.90;94.50;;;;;;4999209;28;20017;-83
2022/09/10 00:07:33;;;;;;;;;;;16.90;94.50;;;;;;4994253;28;19933;-83
2022/09/10 00:10:00;;;;;;;;;;;16.90;94.50;;;;;;4995837;28;19953;-82
2022/09/10 00:12:28;;;;;;;;;;;16.90;94.50;;;;;;5002843;28;19933;-83
2022/09/10 00:14:56;;;;;;;;;;;16.90;94.60;;;;;;4998936;28;20229;-82
2022/09/10 00:17:23;;;;;;;;;;;16.90;94.60;;;;;;4981997;28;19929;-83
2022/09/10 00:19:51;;;;;;;;;;;16.90;94.60;;;;;;4991693;28;19934;-83
2022/09/10 00:22:19;;;;;;;;;;;16.80;94.60;;;;;;4993797;28;19937;-82
2022/09/10 00:24:48;;;;;;;;;;;16.80;94.60;;;;;;4977856;28;19938;-82
2022/09/10 00:27:16;;;;;;;;;;;16.80;94.60;;;;;;4997880;28;21689;-82
2022/09/10 00:29:44;;;;;;;;;;;16.80;94.90;;;;;;4995967;28;20327;-82
2022/09/10 00:32:14;;;;;;;;;;;16.80;94.60;;;;;;4991353;28;19934;-83
2022/09/10 00:34:41;;;;;;;;;;;16.80;94.60;;;;;;5000662;28;19988;-82
2022/09/10 00:37:09;;;;;;;;;;;16.80;94.70;;;;;;4979286;28;19926;-83
2022/09/10 00:39:36;;;;;;;;;;;16.80;94.70;;;;;;4997307;28;20199;-84
2022/09/10 00:42:03;;;;;;;;;;;16.80;94.70;;;;;;4978942;28;19944;-82
2022/09/10 00:44:49;;;;;;;;;;;16.80;94.70;;;;;;4981810;28;20060;-82
2022/09/10 00:47:22;;;;;;;;;;;16.70;94.70;;;;;;4993763;28;20600;-82
2022/09/10 00:49:51;;;;;;;;;;;16.70;94.60;;;;;;4996074;28;20289;-82
2022/09/10 00:52:18;;;;;;;;;;;16.70;94.70;;;;;;4994985;28;19957;-82
2022/09/10 00:54:47;;;;;;;;;;;16.70;94.70;;;;;;4999098;28;19929;-81
2022/09/10 00:57:17;;;;;;;;;;;16.70;94.70;;;;;;4983929;28;19980;-82
2022/09/10 00:59:47;;;;;;;;;;;16.80;94.90;;;;;;4981456;28;19925;-83
2022/09/10 01:02:15;;;;;;;;;;;16.70;94.70;;;;;;4981311;28;20355;-82
2022/09/10 01:04:44;;;;;;;;;;;16.60;94.70;;;;;;4998262;28;19969;-82
2022/09/10 01:07:11;;;;;;;;;;;16.60;94.70;;;;;;5001047;28;19956;-83
2022/09/10 01:09:42;;;;;;;;;;;16.60;94.70;;;;;;4977135;28;19984;-82
2022/09/10 01:12:18;;;;;;;;;;;16.60;94.70;;;;;;5004796;28;20439;-82
2022/09/10 01:14:56;;;;;;;;;;;16.60;94.70;;;;;;4979051;28;20277;-81
2022/09/10 01:17:27;;;;;;;;;;;16.60;94.80;;;;;;5003083;28;19941;-82
2022/09/10 01:20:10;;;;;;;;;;;16.50;94.70;;;;;;5002235;28;19926;-82
2022/09/10 01:22:49;;;;;;;;;;;16.50;94.70;;;;;;4987470;28;19925;-82
2022/09/10 01:25:21;;;;;;;;;;;16.50;94.70;;;;;;4986085;28;19949;-82
2022/09/10 01:27:50;;;;;;;;;;;16.50;94.70;;;;;;4986049;28;19926;-82
2022/09/10 01:30:19;;;;;;;;;;;16.50;94.80;;;;;;4983222;28;19979;-82
2022/09/10 01:32:56;;;;;;;;;;;16.50;94.70;;;;;;4984622;28;19945;-82
2022/09/10 01:35:29;;;;;;;;;;;16.50;94.70;;;;;;5000166;28;19930;-82
2022/09/10 01:37:59;;;;;;;;;;;16.40;94.50;;;;;;4981889;28;19926;-82
2022/09/10 01:40:28;;;;;;;;;;;16.40;94.70;;;;;;4982049;28;19926;-86
2022/09/10 01:43:01;;;;;;;;;;;16.40;94.70;;;;;;4998590;28;19969;-82
2022/09/10 01:45:31;;;;;;;;;;;16.40;94.70;;;;;;4979521;28;19934;-83
2022/09/10 01:48:17;;;;;;;;;;;16.40;94.70;;;;;;4998953;28;19950;-82
2022/09/10 01:50:49;;;;;;;;;;;16.40;94.70;;;;;;4985842;28;19972;-82
2022/09/10 01:53:29;;;;;;;;;;;16.40;94.70;;;;;;4982272;28;19926;-82
2022/09/10 01:55:58;;;;;;;;;;;16.40;94.70;;;;;;4985417;28;20036;-82
2022/09/10 01:58:30;;;;;;;;;;;16.30;94.70;;;;;;4983848;28;19934;-83
2022/09/10 02:01:09;;;;;;;;;;;16.30;94.70;;;;;;4997333;28;20388;-82
2022/09/10 02:03:38;;;;;;;;;;;16.30;94.70;;;;;;4999430;28;19933;-83
2022/09/10 02:06:08;;;;;;;;;;;16.30;94.60;;;;;;4999265;28;19937;-82
2022/09/10 02:08:39;;;;;;;;;;;16.30;94.70;;;;;;4980496;28;19926;-83
2022/09/10 02:11:09;;;;;;;;;;;16.20;94.70;;;;;;5002683;28;19929;-82
2022/09/10 02:13:41;;;;;;;;;;;16.20;94.70;;;;;;4997900;28;19926;-83
2022/09/10 02:16:39;;;;;;;;;;;16.20;94.70;;;;;;4980492;28;19941;-82
2022/09/10 02:19:06;;;;;;;;;;;16.20;94.70;;;;;;4999398;28;20347;-82
2022/09/10 02:21:34;;;;;;;;;;;16.10;94.70;;;;;;4987402;28;20017;-84
2022/09/10 02:24:05;;;;;;;;;;;16.10;94.80;;;;;;4987014;28;19929;-85
2022/09/10 02:26:33;;;;;;;;;;;16.10;94.80;;;;;;4980548;28;19968;-84
2022/09/10 02:29:01;;;;;;;;;;;16.10;94.80;;;;;;4983856;28;20371;-84
2022/09/10 02:31:29;;;;;;;;;;;16.10;94.80;;;;;;4985784;28;19933;-86
2022/09/10 02:33:55;;;;;;;;;;;16.10;94.80;;;;;;5002858;28;19930;-82
2022/09/10 02:36:25;;;;;;;;;;;16.00;94.90;;;;;;4983308;28;19932;-81
2022/09/10 02:38:55;;;;;;;;;;;16.00;95.00;;;;;;4985943;28;19956;-82
2022/09/10 02:41:25;;;;;;;;;;;16.00;95.00;;;;;;4999024;28;19933;-82
2022/09/10 02:43:54;;;;;;;;;;;16.00;95.00;;;;;;5000278;28;19933;-82
2022/09/10 02:46:25;;;;;;;;;;;15.90;95.10;;;;;;4981842;28;19938;-84
2022/09/10 02:48:54;;;;;;;;;;;15.90;95.10;;;;;;4984744;28;20005;-82
2022/09/10 02:51:22;;;;;;;;;;;15.90;95.20;;;;;;4980558;23;21476;-77
2022/09/10 02:53:51;;;;;;;;;;;15.90;95.30;;;;;;4978228;28;19933;-77
2022/09/10 02:56:18;;;;;;;;;;;15.80;95.30;;;;;;4983353;28;20292;-77
2022/09/10 02:58:45;;;;;;;;;;;15.80;95.40;;;;;;4968705;28;19930;-77
2022/09/10 03:01:13;;;;;;;;;;;15.80;95.50;;;;;;4958984;28;19989;-76
2022/09/10 03:03:43;;;;;;;;;;;15.80;95.50;;;;;;4961359;28;20293;-77
2022/09/10 03:06:10;;;;;;;;;;;15.70;95.60;;;;;;4964741;28;20421;-77
2022/09/10 03:08:37;;;;;;;;;;;15.70;95.60;;;;;;4959719;28;19934;-76
2022/09/10 03:11:03;;;;;;;;;;;15.70;95.60;;;;;;4973464;28;20024;-77
2022/09/10 03:13:33;;;;;;;;;;;15.70;95.70;;;;;;4960447;28;20355;-77
2022/09/10 03:16:01;;;;;;;;;;;15.70;95.70;;;;;;4975472;28;19984;-77
2022/09/10 03:18:29;;;;;;;;;;;15.70;95.70;;;;;;4957395;28;19953;-76
2022/09/10 03:21:07;;;;;;;;;;;15.70;95.70;;;;;;4962881;28;20451;-77
2022/09/10 03:23:33;;;;;;;;;;;15.70;95.80;;;;;;4980307;28;20048;-78
2022/09/10 03:26:03;;;;;;;;;;;15.60;95.80;;;;;;4960370;28;20016;-76
2022/09/10 03:28:31;;;;;;;;;;;15.70;95.80;;;;;;4959696;28;19925;-77
2022/09/10 03:31:00;;;;;;;;;;;15.60;95.90;;;;;;4973406;28;20150;-76
2022/09/10 03:33:30;;;;;;;;;;;15.60;95.90;;;;;;4957591;28;19937;-77
2022/09/10 03:35:58;;;;;;;;;;;15.60;95.90;;;;;;4960487;28;20420;-76
2022/09/10 03:38:28;;;;;;;;;;;15.50;96.00;;;;;;4960233;28;20059;-77
2022/09/10 03:40:55;;;;;;;;;;;15.60;96.00;;;;;;4958851;28;20028;-76
2022/09/10 03:43:22;;;;;;;;;;;15.60;96.00;;;;;;4958371;28;20307;-77
2022/09/10 03:45:49;;;;;;;;;;;15.60;96.00;;;;;;4958443;28;19972;-77
2022/09/10 03:48:17;;;;;;;;;;;15.60;96.10;;;;;;4958770;28;19934;-77
2022/09/10 03:50:45;;;;;;;;;;;15.60;96.20;;;;;;4973159;28;19934;-77
2022/09/10 03:53:14;;;;;;;;;;;15.50;96.10;;;;;;4959281;28;19938;-77
2022/09/10 03:55:42;;;;;;;;;;;15.60;96.20;;;;;;4956868;28;19934;-77
2022/09/10 03:58:12;;;;;;;;;;;15.60;96.20;;;;;;4975371;28;19961;-77
2022/09/10 04:00:39;;;;;;;;;;;15.60;96.20;;;;;;4978050;28;19930;-77
2022/09/10 04:03:07;;;;;;;;;;;15.50;96.20;;;;;;4970910;28;19926;-77
2022/09/10 04:05:33;;;;;;;;;;;15.50;96.30;;;;;;4959202;28;19930;-77
2022/09/10 04:08:01;;;;;;;;;;;15.50;96.30;;;;;;4975490;28;21730;-77
2022/09/10 04:10:29;;;;;;;;;;;15.50;96.40;;;;;;4973702;28;19933;-77
2022/09/10 04:12:56;;;;;;;;;;;15.50;96.40;;;;;;4960379;28;19934;-77
2022/09/10 04:15:24;;;;;;;;;;;15.50;96.40;;;;;;4964321;28;19926;-76
2022/09/10 04:17:55;;;;;;;;;;;15.40;96.40;;;;;;4957623;28;20329;-76
2022/09/10 04:20:24;;;;;;;;;;;15.50;96.50;;;;;;4968050;28;19932;-77
2022/09/10 04:22:57;;;;;;;;;;;15.40;96.50;;;;;;4958682;28;19936;-78
2022/09/10 04:25:25;;;;;;;;;;;15.50;96.60;;;;;;4956719;28;20348;-77
2022/09/10 04:27:54;;;;;;;;;;;15.40;96.60;;;;;;4954173;28;19933;-77
2022/09/10 04:30:22;;;;;;;;;;;15.40;96.60;;;;;;4974345;28;19926;-77
2022/09/10 04:32:51;;;;;;;;;;;15.40;96.70;;;;;;4958700;28;20384;-77
2022/09/10 04:35:19;;;;;;;;;;;15.40;96.70;;;;;;4974632;28;19926;-77
2022/09/10 04:37:47;;;;;;;;;;;15.40;96.70;;;;;;4956211;28;19938;-77
2022/09/10 04:40:14;;;;;;;;;;;15.40;96.80;;;;;;4959474;28;20004;-77
2022/09/10 04:42:42;;;;;;;;;;;15.40;96.80;;;;;;4955247;28;19926;-77
2022/09/10 04:45:11;;;;;;;;;;;15.40;96.80;;;;;;4959576;28;20403;-76
2022/09/10 04:47:37;;;;;;;;;;;15.30;96.80;;;;;;4973883;28;19937;-76
2022/09/10 04:50:07;;;;;;;;;;;15.30;96.80;;;;;;4958759;28;20246;-77
2022/09/10 04:52:34;;;;;;;;;;;15.30;96.90;;;;;;5056195;23;19946;-76
2022/09/10 05:02:27;;;;;;;;;;;15.30;97.10;;;;;;5044652;23;21271;-73
2022/09/10 05:04:54;;;;;;;;;;;15.30;97.00;;;;;;4996329;23;21460;-73
2022/09/10 05:07:21;;;;;;;;;;;15.30;97.10;;;;;;5012179;23;19932;-72
2022/09/10 05:09:49;;;;;;;;;;;15.30;97.20;;;;;;4977137;28;20027;-75
2022/09/10 05:12:18;;;;;;;;;;;15.30;97.20;;;;;;4996129;28;19939;-74
2022/09/10 05:14:45;;;;;;;;;;;15.20;97.10;;;;;;4979543;28;20025;-74
2022/09/10 05:17:12;;;;;;;;;;;15.20;97.20;;;;;;4989873;28;19964;-75
2022/09/10 05:19:41;;;;;;;;;;;15.20;97.20;;;;;;5000400;28;20008;-75
2022/09/10 05:22:09;;;;;;;;;;;15.20;97.20;;;;;;4981895;28;19925;-72
2022/09/10 05:24:36;;;;;;;;;;;15.20;97.20;;;;;;4999496;28;19933;-75
2022/09/10 05:27:05;;;;;;;;;;;15.20;97.30;;;;;;4988408;28;19933;-72
2022/09/10 05:29:31;;;;;;;;;;;15.20;97.30;;;;;;4998992;28;19925;-75
2022/09/10 05:31:58;;;;;;;;;;;15.20;97.30;;;;;;4977836;28;19932;-73
2022/09/10 05:34:26;;;;;;;;;;;15.20;97.40;;;;;;4983346;28;23277;-74
2022/09/10 05:36:55;;;;;;;;;;;15.20;97.30;;;;;;4984910;28;19988;-73
2022/09/10 05:39:22;;;;;;;;;;;15.20;97.40;;;;;;4981245;28;19972;-75
2022/09/10 05:41:49;;;;;;;;;;;15.20;97.50;;;;;;4977424;28;19948;-74
2022/09/10 05:44:17;;;;;;;;;;;15.20;97.50;;;;;;4994393;28;19926;-74
2022/09/10 05:46:46;;;;;;;;;;;15.20;97.60;;;;;;4993684;28;20000;-73
2022/09/10 05:49:15;;;;;;;;;;;15.10;97.60;;;;;;4997866;28;20671;-75
2022/09/10 05:51:42;;;;;;;;;;;15.10;97.60;;;;;;4990557;28;19926;-75
2022/09/10 05:54:11;;;;;;;;;;;15.10;97.70;;;;;;4976756;28;19932;-73
2022/09/10 05:56:39;;;;;;;;;;;15.10;97.60;;;;;;4976954;28;20023;-75
2022/09/10 05:59:06;;;;;;;;;;;15.10;97.70;;;;;;4985603;28;20249;-75
2022/09/10 06:01:35;;;;;;;;;;;15.10;97.70;;;;;;4975188;28;19925;-74
2022/09/10 06:04:04;;;;;;;;;;;15.10;97.70;;;;;;5033321;22;19926;-77
2022/09/10 06:06:31;;;;;;;;;;;15.10;97.70;;;;;;4977652;28;19930;-76
2022/09/10 06:09:07;;;;;;;;;;;15.10;97.70;;;;;;4966552;28;20410;-78
2022/09/10 06:11:44;;;;;;;;;;;15.10;97.80;;;;;;4955529;28;19938;-78
2022/09/10 06:14:13;;;;;;;;;;;15.10;97.80;;;;;;4970162;28;20076;-76
2022/09/10 06:16:40;;;;;;;;;;;15.10;97.80;;;;;;4964051;28;19933;-78
2022/09/10 06:19:08;;;;;;;;;;;15.10;97.90;;;;;;4962524;28;19926;-77
2022/09/10 06:21:36;;;;;;;;;;;15.10;97.90;;;;;;4958065;28;19964;-78
2022/09/10 06:24:04;;;;;;;;;;;15.10;98.00;;;;;;4962647;28;19936;-77
2022/09/10 06:26:35;;;;;;;;;;;15.00;98.00;;;;;;4964627;28;19934;-78
2022/09/10 06:29:08;;;;;;;;;;;15.00;98.00;;;;;;4958587;28;20708;-78
2022/09/10 06:31:35;;;;;;;;;;;15.00;98.10;;;;;;4984850;28;19926;-78
2022/09/10 06:34:03;;;;;;;;;;;15.00;97.90;;;;;;4982809;28;19933;-78
2022/09/10 06:36:32;;;;;;;;;;;15.00;98.00;;;;;;4963351;28;19926;-79
2022/09/10 06:39:00;;;;;;;;;;;15.00;98.10;;;;;;4977739;28;19934;-76
2022/09/10 06:41:29;;;;;;;;;;;15.00;98.20;;;;;;4956474;28;19929;-77
2022/09/10 06:44:09;;;;;;;;;;;15.00;98.50;;;;;;4978609;28;19929;-77
2022/09/10 06:47:02;;;;;;;;;;;15.00;98.70;;;;;;4954469;28;19934;-76
2022/09/10 06:49:30;;;;;;;;;;;15.00;99.50;;;;;;4970703;28;19937;-78
2022/09/10 06:51:57;;;;;;;;;;;15.00;99.50;;;;;;4969201;28;19933;-78
2022/09/10 06:54:25;;;;;;;;;;;15.00;99.50;;;;;;4986397;28;20333;-77
2022/09/10 06:56:53;;;;;;;;;;;15.00;99.40;;;;;;4992710;28;19935;-77
2022/09/10 06:59:21;;;;;;;;;;;15.00;99.50;;;;;;4970981;28;19972;-76
2022/09/10 07:01:50;;;;;;;;;;;15.00;99.40;;;;;;4971663;28;20411;-77
2022/09/10 07:04:19;;;;;;;;;;;15.00;99.40;;;;;;4967114;28;19926;-78
2022/09/10 07:06:46;;;;;;;;;;;15.00;99.30;;;;;;4988002;28;19926;-76
2022/09/10 07:09:17;;;;;;;;;;;15.00;99.30;;;;;;4967928;28;19933;-76
2022/09/10 07:12:10;;;;;;;;;;;15.00;99.30;;;;;;4985713;28;19925;-77
2022/09/10 07:14:41;;;;;;;;;;;15.00;99.30;;;;;;4974066;28;19926;-76
2022/09/10 07:17:10;;;;;;;;;;;15.00;99.30;;;;;;4972457;28;19972;-77
2022/09/10 07:19:38;;;;;;;;;;;15.00;99.40;;;;;;4967682;28;20369;-76
2022/09/10 07:22:12;;;;;;;;;;;15.00;99.30;;;;;;4970674;28;19980;-78
2022/09/10 07:24:39;;;;;;;;;;;15.00;99.30;;;;;;4967477;28;19925;-77
2022/09/10 07:27:09;;;;;;;;;;;15.00;99.30;;;;;;4971047;28;20344;-78
2022/09/10 07:29:37;;;;;;;;;;;15.00;99.40;;;;;;4969917;28;19926;-76
2022/09/10 07:32:09;;;;;;;;;;;15.00;99.50;;;;;;4967174;28;19930;-78
2022/09/10 07:34:37;;;;;;;;;;;15.00;99.50;;;;;;4968402;28;19926;-78
2022/09/10 07:37:06;;;;;;;;;;;15.00;99.50;;;;;;4971438;28;20032;-76
2022/09/10 07:39:33;;;;;;;;;;;15.00;99.50;;;;;;4965311;28;20025;-78
2022/09/10 07:42:00;;;;;;;;;;;15.00;99.60;;;;;;4985970;28;19964;-78
2022/09/10 07:44:29;;;;;;;;;;;15.00;99.70;;;;;;4971017;28;19980;-77
2022/09/10 07:47:02;;;;;;;;;;;15.10;99.70;;;;;;4970924;28;19929;-78
2022/09/10 07:49:31;;;;;;;;;;;15.10;99.80;;;;;;4966236;28;20290;-79
2022/09/10 07:51:58;;;;;;;;;;;15.00;99.80;;;;;;4972822;28;19979;-76
2022/09/10 07:54:27;;;;;;;;;;;15.00;99.90;;;;;;4985762;28;20006;-78
2022/09/10 07:56:55;;;;;;;;;;;15.00;99.90;;;;;;4968857;28;20376;-77
2022/09/10 07:59:22;;;;;;;;;;;15.00;99.90;;;;;;4970460;28;20380;-77
2022/09/10 08:01:58;;;;;;;;;;;15.00;99.90;;;;;;4968409;28;19948;-78
2022/09/10 08:04:25;;;;;;;;;;;15.10;99.70;;;;;;4967656;28;20016;-78
2022/09/10 08:06:54;;;;;;;;;;;15.10;99.90;;;;;;4983265;28;19933;-76
2022/09/10 08:09:21;;;;;;;;;;;15.10;99.90;;;;;;4968095;28;19927;-77
2022/09/10 08:11:53;;;;;;;;;;;15.10;99.90;;;;;;4968122;28;19926;-77
2022/09/10 08:14:23;;;;;;;;;;;15.10;99.90;;;;;;4970677;28;19933;-78
2022/09/10 08:16:53;;;;;;;;;;;15.10;99.90;;;;;;4968456;28;19944;-77
2022/09/10 08:19:21;;;;;;;;;;;15.10;99.90;;;;;;4964044;28;19926;-76
2022/09/10 08:21:48;;;;;;;;;;;15.10;99.90;;;;;;4970288;28;19925;-77
2022/09/10 08:24:23;;;;;;;;;;;15.10;99.90;;;;;;4969603;28;19932;-77
2022/09/10 08:26:51;;;;;;;;;;;15.10;99.90;;;;;;4971374;28;19926;-77
2022/09/10 08:29:18;;;;;;;;;;;15.20;99.90;;;;;;4969685;28;20034;-77
2022/09/10 08:31:46;;;;;;;;;;;15.10;99.90;;;;;;4966229;28;20185;-76
2022/09/10 08:34:18;;;;;;;;;;;15.20;99.90;;;;;;4969659;28;19933;-76
2022/09/10 08:36:51;;;;;;;;;;;15.20;99.90;;;;;;4968575;28;19925;-76
2022/09/10 08:39:19;;;;;;;;;;;15.20;99.90;;;;;;4964892;28;20305;-79
2022/09/10 08:41:51;;;;;;;;;;;15.20;99.90;;;;;;4971667;28;19930;-76
2022/09/10 08:44:27;;;;;;;;;;;15.20;99.90;;;;;;4970519;28;19929;-76
2022/09/10 08:46:56;;;;;;;;;;;15.20;99.90;;;;;;4971044;28;20420;-76
2022/09/10 08:49:30;;;;;;;;;;;15.20;99.90;;;;;;4969121;28;19925;-76
2022/09/10 08:51:59;;;;;;;;;;;15.20;99.90;;;;;;4971924;28;19929;-77
2022/09/10 08:54:31;;;;;;;;;;;15.30;99.90;;;;;;4968917;28;19930;-76
2022/09/10 08:57:00;;;;;;;;;;;15.30;99.90;;;;;;4971011;28;19926;-78
2022/09/10 08:59:30;;;;;;;;;;;15.30;99.90;;;;;;4982221;28;19981;-78
2022/09/10 09:01:59;;;;;;;;;;;15.30;99.90;;;;;;4987390;28;19926;-78
2022/09/10 09:04:36;;;;;;;;;;;15.30;99.90;;;;;;4968681;28;19926;-78
2022/09/10 09:07:09;;;;;;;;;;;15.30;99.90;;;;;;4982503;28;20431;-79
2022/09/10 09:09:36;;;;;;;;;;;15.30;99.90;;;;;;4987236;28;19933;-78
2022/09/10 09:12:14;;;;;;;;;;;15.30;99.90;;;;;;4970363;28;19959;-78
2022/09/10 09:14:50;;;;;;;;;;;15.30;99.90;;;;;;4970731;28;19930;-78
2022/09/10 09:17:26;;;;;;;;;;;15.30;99.90;;;;;;4981862;28;19929;-76
2022/09/10 09:19:58;;;;;;;;;;;15.30;99.90;;;;;;4968878;28;20379;-77
2022/09/10 09:22:33;;;;;;;;;;;15.40;99.90;;;;;;4967704;28;19929;-77
2022/09/10 09:25:01;;;;;;;;;;;15.40;99.90;;;;;;4967852;28;19985;-77
2022/09/10 09:27:33;;;;;;;;;;;15.40;99.90;;;;;;4967399;28;20372;-78
2022/09/10 09:30:02;;;;;;;;;;;15.40;99.90;;;;;;4968202;28;19929;-79
2022/09/10 09:32:34;;;;;;;;;;;15.40;99.90;;;;;;4971618;28;19957;-79
2022/09/10 09:35:06;;;;;;;;;;;15.40;99.90;;;;;;4970053;28;19926;-78
2022/09/10 09:37:35;;;;;;;;;;;15.40;99.90;;;;;;4965561;28;19926;-78
2022/09/10 09:40:05;;;;;;;;;;;15.50;99.90;;;;;;4969070;28;19937;-78
2022/09/10 09:42:38;;;;;;;;;;;15.50;99.90;;;;;;4966737;28;20012;-77
2022/09/10 09:45:08;;;;;;;;;;;15.50;99.90;;;;;;4971020;28;19992;-77
2022/09/10 09:47:35;;;;;;;;;;;15.50;99.90;;;;;;4969792;28;19926;-76
2022/09/10 09:50:01;;;;;;;;;;;15.50;99.90;;;;;;4974884;28;19988;-78
2022/09/10 09:52:30;;;;;;;;;;;15.50;99.90;;;;;;4989851;28;20029;-78
2022/09/10 09:55:00;;;;;;;;;;;15.50;99.90;;;;;;4990138;28;19934;-76
2022/09/10 09:57:28;;;;;;;;;;;15.50;99.90;;;;;;4974096;28;19926;-78
2022/09/10 09:59:56;;;;;;;;;;;15.60;99.90;;;;;;4994326;28;20455;-77
2022/09/10 10:02:24;;;;;;;;;;;15.60;99.90;;;;;;4989565;28;19926;-79
2022/09/10 10:04:55;;;;;;;;;;;15.60;99.90;;;;;;4990162;28;20381;-77
2022/09/10 10:07:25;;;;;;;;;;;15.60;99.90;;;;;;4991748;28;20024;-78
2022/09/10 10:09:52;;;;;;;;;;;15.60;99.90;;;;;;4979676;28;19925;-78
2022/09/10 10:12:19;;;;;;;;;;;15.60;99.90;;;;;;4965745;28;19926;-78
2022/09/10 10:14:46;;;;;;;;;;;15.70;99.90;;;;;;4996474;28;20028;-77
2022/09/10 10:17:32;;;;;;;;;;;15.70;99.90;;;;;;4971470;28;19933;-76
2022/09/10 10:20:09;;;;;;;;;;;15.70;99.90;;;;;;4988551;28;20025;-79
2022/09/10 10:22:36;;;;;;;;;;;15.70;99.90;;;;;;4987330;28;19930;-78
2022/09/10 10:25:05;;;;;;;;;;;15.70;99.90;;;;;;4992622;28;19968;-78
2022/09/10 10:27:34;;;;;;;;;;;15.70;99.90;;;;;;4993845;28;19926;-79
2022/09/10 10:30:15;;;;;;;;;;;15.70;99.90;;;;;;4991560;28;20005;-77
2022/09/10 10:32:46;;;;;;;;;;;15.80;99.90;;;;;;4989013;28;19929;-79
2022/09/10 10:35:19;;;;;;;;;;;15.80;99.90;;;;;;4993824;28;19972;-81
2022/09/10 10:37:51;;;;;;;;;;;15.80;99.90;;;;;;4987109;28;20400;-78
2022/09/10 10:40:22;;;;;;;;;;;15.80;99.90;;;;;;4974602;28;19925;-79
2022/09/10 10:42:52;;;;;;;;;;;15.80;99.90;;;;;;4994685;28;19965;-79
2022/09/10 10:45:32;;;;;;;;;;;15.80;99.90;;;;;;4970189;28;19926;-78
2022/09/10 10:48:03;;;;;;;;;;;15.90;99.90;;;;;;4992926;28;19965;-78
2022/09/10 10:50:35;;;;;;;;;;;15.90;99.90;;;;;;4973949;28;19926;-77
2022/09/10 10:53:17;;;;;;;;;;;15.90;99.90;;;;;;4991946;28;19925;-77
2022/09/10 10:55:46;;;;;;;;;;;15.90;99.90;;;;;;4988754;28;19999;-79
2022/09/10 10:58:29;;;;;;;;;;;15.90;99.90;;;;;;4994699;28;20351;-77
2022/09/10 11:01:00;;;;;;;;;;;16.00;99.90;;;;;;4986652;28;19930;-78
2022/09/10 11:03:32;;;;;;;;;;;16.00;99.90;;;;;;4988035;28;19926;-77
2022/09/10 11:06:00;;;;;;;;;;;15.90;99.90;;;;;;4989001;28;19973;-78
2022/09/10 11:08:30;;;;;;;;;;;16.00;99.90;;;;;;4972165;28;19933;-78
2022/09/10 11:10:59;;;;;;;;;;;16.00;99.90;;;;;;4986815;28;20020;-78
2022/09/10 11:13:31;;;;;;;;;;;16.00;99.90;;;;;;4987349;28;19933;-77
2022/09/10 11:16:00;;;;;;;;;;;16.00;99.90;;;;;;4984288;28;19941;-78
2022/09/10 11:18:32;;;;;;;;;;;16.00;99.90;;;;;;4971396;28;20024;-77
2022/09/10 11:21:02;;;;;;;;;;;16.10;99.90;;;;;;4990019;28;20174;-77
2022/09/10 11:23:32;;;;;;;;;;;16.00;99.90;;;;;;4977456;28;20282;-78
2022/09/10 11:26:01;;;;;;;;;;;16.00;99.90;;;;;;4971160;28;20296;-77
2022/09/10 11:28:30;;;;;;;;;;;16.00;99.90;;;;;;4972501;28;20009;-79
2022/09/10 11:31:00;;;;;;;;;;;16.10;99.90;;;;;;4954158;28;19929;-77
2022/09/10 11:33:32;;;;;;;;;;;16.10;99.90;;;;;;4985539;28;20001;-77
2022/09/10 11:36:02;;;;;;;;;;;16.10;99.90;;;;;;4985939;28;20464;-78
2022/09/10 11:38:31;;;;;;;;;;;16.10;99.90;;;;;;4980968;28;20909;-79
2022/09/10 11:41:05;;;;;;;;;;;16.10;99.90;;;;;;4970565;28;19937;-77
2022/09/10 11:43:36;;;;;;;;;;;16.10;99.90;;;;;;4966201;28;20024;-77
2022/09/10 11:46:04;;;;;;;;;;;16.10;99.90;;;;;;4972319;28;21329;-79
2022/09/10 11:48:37;;;;;;;;;;;16.10;99.90;;;;;;4976720;28;20082;-76
2022/09/10 11:51:06;;;;;;;;;;;16.10;99.90;;;;;;4978105;28;20540;-78
2022/09/10 11:53:33;;;;;;;;;;;16.20;99.90;;;;;;4972594;28;20032;-78
2022/09/10 11:56:19;;;;;;;;;;;16.10;99.90;;;;;;4975091;28;20324;-77
2022/09/10 11:58:50;;;;;;;;;;;16.20;99.90;;;;;;4973406;28;20467;-77
2022/09/10 12:01:23;;;;;;;;;;;16.10;99.90;;;;;;4969097;28;20375;-77
2022/09/10 12:04:02;;;;;;;;;;;16.10;99.90;;;;;;4974998;28;19925;-77
2022/09/10 12:06:33;;;;;;;;;;;16.20;99.90;;;;;;4953438;28;19938;-76
2022/09/10 12:09:05;;;;;;;;;;;16.20;99.90;;;;;;4973970;28;19933;-78
2022/09/10 12:11:37;;;;;;;;;;;16.20;99.90;;;;;;4973474;28;20393;-76
2022/09/10 12:14:05;;;;;;;;;;;16.20;99.90;;;;;;4974668;28;19953;-77
2022/09/10 12:16:34;;;;;;;;;;;16.20;99.90;;;;;;4973678;28;20367;-76
2022/09/10 12:19:04;;;;;;;;;;;16.20;99.90;;;;;;4970105;28;20020;-77
2022/09/10 12:21:33;;;;;;;;;;;16.30;99.90;;;;;;4958251;28;19945;-79
2022/09/10 12:24:00;;;;;;;;;;;16.20;99.90;;;;;;4975133;28;19925;-78
2022/09/10 12:26:27;;;;;;;;;;;16.30;99.90;;;;;;4966774;28;20423;-78
2022/09/10 12:29:13;;;;;;;;;;;16.30;99.90;;;;;;4970622;28;19980;-78
2022/09/10 12:31:58;;;;;;;;;;;16.30;99.90;;;;;;4958204;28;19934;-78
2022/09/10 12:34:27;;;;;;;;;;;16.30;99.90;;;;;;4972608;28;20452;-77
2022/09/10 12:37:15;;;;;;;;;;;16.30;99.90;;;;;;4969982;28;20282;-78
2022/09/10 12:39:43;;;;;;;;;;;16.30;99.90;;;;;;4974850;28;19930;-79
2022/09/10 12:42:24;;;;;;;;;;;16.30;99.90;;;;;;4975330;28;19926;-77
2022/09/10 12:44:51;;;;;;;;;;;16.30;99.90;;;;;;4973041;28;20346;-79
2022/09/10 12:47:26;;;;;;;;;;;16.30;99.90;;;;;;4961347;28;19934;-79
2022/09/10 12:49:56;;;;;;;;;;;16.30;99.90;;;;;;4973371;28;19934;-77
2022/09/10 12:52:26;;;;;;;;;;;16.30;99.90;;;;;;4969059;28;20300;-77
2022/09/10 12:54:58;;;;;;;;;;;16.30;99.90;;;;;;4976164;28;19961;-77
2022/09/10 12:57:33;;;;;;;;;;;16.40;99.90;;;;;;4976763;28;19941;-76
2022/09/10 13:00:11;;;;;;;;;;;16.40;99.90;;;;;;4950211;28;20102;-78
2022/09/10 13:02:41;;;;;;;;;;;16.30;99.90;;;;;;4971904;28;19933;-77
2022/09/10 13:05:21;;;;;;;;;;;16.40;99.90;;;;;;4975832;28;20348;-77
2022/09/10 13:07:56;;;;;;;;;;;16.40;99.90;;;;;;4971797;28;20031;-77
2022/09/10 13:10:25;;;;;;;;;;;16.40;99.90;;;;;;4970329;28;19926;-77
2022/09/10 13:12:53;;;;;;;;;;;16.40;99.90;;;;;;4975217;28;19957;-76
2022/09/10 13:15:22;;;;;;;;;;;16.40;99.90;;;;;;4972380;28;19926;-78
2022/09/10 13:18:08;;;;;;;;;;;16.50;99.90;;;;;;4971359;28;19930;-77
2022/09/10 13:20:36;;;;;;;;;;;16.40;99.90;;;;;;4979504;28;20412;-76
2022/09/10 13:23:04;;;;;;;;;;;16.50;99.90;;;;;;4980423;28;19934;-76
2022/09/10 13:25:40;;;;;;;;;;;16.50;99.90;;;;;;4970767;28;19930;-76
2022/09/10 13:28:25;;;;;;;;;;;16.50;99.90;;;;;;4971871;28;20311;-77
2022/09/10 13:30:58;;;;;;;;;;;16.50;99.90;;;;;;4969489;28;19926;-77
2022/09/10 13:33:29;;;;;;;;;;;16.50;99.90;;;;;;4973228;28;20573;-77
2022/09/10 13:36:04;;;;;;;;;;;16.50;99.90;;;;;;4974656;28;19952;-78
2022/09/10 13:38:46;;;;;;;;;;;16.50;99.90;;;;;;4971592;28;20134;-78
2022/09/10 13:41:28;;;;;;;;;;;16.50;99.90;;;;;;4974267;28;20029;-77
2022/09/10 13:44:22;;;;;;;;;;;16.50;99.90;;;;;;4973996;28;20136;-77
2022/09/10 13:46:50;;;;;;;;;;;16.50;99.90;;;;;;4933832;28;19941;-76
2022/09/10 13:49:19;;;;;;;;;;;16.60;99.90;;;;;;4971848;28;19936;-78
2022/09/10 13:51:50;;;;;;;;;;;16.60;99.90;;;;;;4971507;28;20349;-78
2022/09/10 13:54:25;;;;;;;;;;;16.60;99.90;;;;;;4965506;28;19940;-78
2022/09/10 13:56:52;;;;;;;;;;;16.60;99.90;;;;;;4967097;28;19965;-78
2022/09/10 13:59:23;;;;;;;;;;;16.60;99.90;;;;;;4971251;28;19934;-78
2022/09/10 14:01:51;;;;;;;;;;;16.70;99.90;;;;;;4972903;28;19956;-77
2022/09/10 14:04:21;;;;;;;;;;;16.70;99.90;;;;;;4968394;28;19926;-78
2022/09/10 14:06:49;;;;;;;;;;;16.70;99.90;;;;;;4969938;28;20304;-77
2022/09/10 14:09:17;;;;;;;;;;;16.70;99.90;;;;;;4972767;28;20454;-78
2022/09/10 14:11:44;;;;;;;;;;;16.70;99.90;;;;;;4970303;28;20004;-78
2022/09/10 14:14:13;;;;;;;;;;;16.70;99.90;;;;;;4970287;28;20014;-77
2022/09/10 14:16:43;;;;;;;;;;;16.70;99.90;;;;;;4969324;28;20008;-78
2022/09/10 14:19:14;;;;;;;;;;;16.70;99.90;;;;;;4974872;28;20070;-77
2022/09/10 14:21:42;;;;;;;;;;;16.80;99.90;;;;;;4972297;28;20319;-77
2022/09/10 14:24:25;;;;;;;;;;;16.80;99.90;;;;;;4974018;28;20384;-78
2022/09/10 14:27:04;;;;;;;;;;;16.80;99.90;;;;;;4953724;28;19926;-79
2022/09/10 14:29:31;;;;;;;;;;;16.80;99.90;;;;;;4955479;28;19960;-77
2022/09/10 14:31:57;;;;;;;;;;;16.80;99.90;;;;;;4967006;28;19933;-77
2022/09/10 14:34:32;;;;;;;;;;;16.80;99.90;;;;;;4976688;28;20015;-78
2022/09/10 14:36:59;;;;;;;;;;;16.90;99.90;;;;;;4969471;28;20025;-77
2022/09/10 14:39:28;;;;;;;;;;;16.80;99.90;;;;;;4972855;28;20313;-78
2022/09/10 14:42:21;;;;;;;;;;;16.80;99.90;;;;;;4983152;28;20397;-77